createdAt,value
2022-09-09T00:02:30.325Z,100232.84
2022-09-09T00:06:06.671Z,100235.09
2022-09-09T00:09:38.874Z,100235.36
2022-09-09T00:13:20.950Z,100238.90
2022-09-09T00:16:53.518Z,100238.14
2022-09-09T00:20:28.271Z,100238.36
2022-09-09T00:23:58.129Z,100237.02
2022-09-09T00:27:31.876Z,100235.96
2022-09-09T00:31:03.696Z,100235.55
2022-09-09T00:34:34.343Z,100232.80
2022-09-09T00:38:20.427Z,100235.09
2022-09-09T00:42:01.548Z,100233.52
2022-09-09T00:45:54.869Z,100228.21
2022-09-09T00:49:33.561Z,100232.52
2022-09-09T00:53:13.551Z,100231.81
2022-09-09T00:56:46.792Z,100226.55
2022-09-09T01:00:30.243Z,100224.81
2022-09-09T01:03:56.825Z,100228.42
2022-09-09T01:07:23.844Z,100228.75
2022-09-09T01:10:55.713Z,100227.55
2022-09-09T01:14:41.133Z,100228.39
2022-09-09T01:18:13.898Z,100228.81
2022-09-09T01:22:03.833Z,100228.75
2022-09-09T01:25:53.294Z,100235.66
2022-09-09T01:29:25.777Z,100236.68
2022-09-09T01:33:03.908Z,100240.11
2022-09-09T01:36:37.256Z,100237.40
2022-09-09T01:40:04.336Z,100237.80
2022-09-09T01:43:33.531Z,100235.50
2022-09-09T01:47:02.059Z,100236.14
2022-09-09T01:50:29.214Z,100237.53
2022-09-09T01:53:57.033Z,100233.94
2022-09-09T01:57:30.578Z,100233.91
2022-09-09T02:01:04.655Z,100236.33
2022-09-09T02:04:42.841Z,100232.64
2022-09-09T02:08:20.193Z,100234.09
2022-09-09T02:12:03.553Z,100232.16
2022-09-09T02:15:48.354Z,100233.11
2022-09-09T02:19:28.182Z,100231.66
2022-09-09T02:23:10.028Z,100231.45
2022-09-09T02:26:41.660Z,100234.89
2022-09-09T02:30:12.389Z,100241.02
2022-09-09T02:33:49.612Z,100244.02
2022-09-09T02:37:18.085Z,100244.27
2022-09-09T02:40:47.994Z,100240.45
2022-09-09T02:44:18.108Z,100238.50
2022-09-09T02:47:53.429Z,100237.89
2022-09-09T02:51:27.036Z,100234.55
2022-09-09T02:55:00.512Z,100238.02
2022-09-09T02:58:28.386Z,100236.84
2022-09-09T03:02:04.660Z,100244.04
2022-09-09T03:05:33.209Z,100247.13
2022-09-09T03:09:03.034Z,100251.20
2022-09-09T03:12:30.321Z,100250.42
2022-09-09T03:15:57.969Z,100255.92
2022-09-09T03:19:25.742Z,100257.03
2022-09-09T03:22:52.825Z,100253.97
2022-09-09T03:26:20.275Z,100248.20
2022-09-09T03:29:52.358Z,100250.41
2022-09-09T03:33:23.121Z,100251.55
2022-09-09T03:36:54.272Z,100255.69
2022-09-09T03:40:21.549Z,100256.24
2022-09-09T03:43:48.605Z,100252.33
2022-09-09T03:47:16.304Z,100248.55
2022-09-09T03:50:51.455Z,100242.90
2022-09-09T03:54:18.756Z,100245.00
2022-09-09T03:57:50.193Z,100249.10
2022-09-09T04:01:19.417Z,100246.69
2022-09-09T04:08:33.681Z,100249.91
2022-09-09T04:12:01.677Z,100254.23
2022-09-09T04:15:31.724Z,100257.51
2022-09-09T04:19:01.034Z,100260.20
2022-09-09T04:22:28.820Z,100254.68
2022-09-09T04:25:57.530Z,100255.22
2022-09-09T04:29:24.281Z,100257.42
2022-09-09T04:32:52.157Z,100260.10
2022-09-09T04:36:21.396Z,100253.06
2022-09-09T04:39:49.374Z,100258.90
2022-09-09T04:43:27.099Z,100260.47
2022-09-09T04:46:54.359Z,100259.30
2022-09-09T04:50:26.788Z,100267.71
2022-09-09T04:53:58.649Z,100268.52
2022-09-09T04:57:25.638Z,100272.27
2022-09-09T05:00:53.375Z,100276.22
2022-09-09T05:04:23.304Z,100276.92
2022-09-09T05:07:53.973Z,100272.48
2022-09-09T05:11:25.040Z,100275.98
2022-09-09T05:15:09.258Z,100273.30
2022-09-09T05:18:36.105Z,100276.91
2022-09-09T05:22:04.119Z,100276.27
2022-09-09T05:25:37.410Z,100275.55
2022-09-09T05:29:08.109Z,100281.98
2022-09-09T05:32:35.560Z,100283.19
2022-09-09T05:36:05.733Z,100280.15
2022-09-09T05:39:34.249Z,100278.58
2022-09-09T05:43:05.336Z,100284.25
2022-09-09T05:46:32.609Z,100286.95
2022-09-09T05:49:59.268Z,100287.11
2022-09-09T05:53:38.206Z,100287.17
2022-09-09T05:57:04.901Z,100285.19
2022-09-09T06:00:32.874Z,100282.89
2022-09-09T06:04:04.072Z,100284.18
2022-09-09T06:07:32.305Z,100290.30
2022-09-09T06:11:05.921Z,100292.65
2022-09-09T06:14:33.472Z,100297.52
2022-09-09T06:18:00.951Z,100302.76
2022-09-09T06:21:30.566Z,100306.23
2022-09-09T06:24:58.486Z,100307.61
2022-09-09T06:28:26.411Z,100308.77
2022-09-09T06:31:53.166Z,100307.35
2022-09-09T06:35:24.935Z,100308.92
2022-09-09T06:38:51.848Z,100311.91
2022-09-09T06:42:20.106Z,100317.20
2022-09-09T06:46:06.660Z,100315.91
2022-09-09T06:49:35.006Z,100312.27
2022-09-09T06:53:03.847Z,100312.62
2022-09-09T06:56:32.410Z,100309.45
2022-09-09T07:00:02.120Z,100318.23
2022-09-09T07:03:31.116Z,100319.98
2022-09-09T07:07:00.443Z,100322.30
2022-09-09T07:10:29.119Z,100327.20
2022-09-09T07:14:00.099Z,100332.85
2022-09-09T07:17:27.365Z,100327.34
2022-09-09T07:21:00.811Z,100328.08
2022-09-09T07:24:31.868Z,100331.23
2022-09-09T07:27:59.945Z,100333.99
2022-09-09T07:31:29.143Z,100336.92
2022-09-09T07:34:56.412Z,100336.34
2022-09-09T07:38:24.160Z,100341.36
2022-09-09T07:41:52.368Z,100340.06
2022-09-09T07:45:21.958Z,100338.45
2022-09-09T07:48:52.421Z,100336.08
2022-09-09T07:52:21.896Z,100341.78
2022-09-09T07:55:52.413Z,100348.15
2022-09-09T07:59:20.672Z,100355.32
2022-09-09T08:02:48.768Z,100358.97
2022-09-09T08:06:16.981Z,100368.48
2022-09-09T08:09:43.686Z,100371.49
2022-09-09T08:13:18.486Z,100377.09
2022-09-09T08:16:51.002Z,100374.47
2022-09-09T08:20:24.438Z,100378.54
2022-09-09T08:23:57.852Z,100378.17
2022-09-09T08:27:25.516Z,100383.30
2022-09-09T08:30:54.634Z,100386.52
2022-09-09T08:34:22.300Z,100392.31
2022-09-09T08:37:51.621Z,100397.46
2022-09-09T08:41:54.792Z,100394.45
2022-09-09T08:45:31.981Z,100391.79
2022-09-09T08:49:07.122Z,100395.25
2022-09-09T08:52:40.730Z,100401.91
2022-09-09T08:56:15.433Z,100402.59
2022-09-09T08:59:57.228Z,100400.27
2022-09-09T09:03:36.668Z,100408.43
2022-09-09T09:07:16.919Z,100412.69
2022-09-09T09:10:51.094Z,100411.59
2022-09-09T09:14:24.754Z,100414.58
2022-09-09T09:17:53.755Z,100412.94
2022-09-09T09:21:32.273Z,100407.05
2022-09-09T09:25:04.063Z,100409.13
2022-09-09T09:28:34.457Z,100408.00
2022-09-09T09:32:14.995Z,100409.36
2022-09-09T09:35:44.745Z,100408.16
2022-09-09T09:43:25.057Z,100404.91
2022-09-09T09:46:53.025Z,100411.16
2022-09-09T09:50:24.133Z,100414.18
2022-09-09T09:53:54.263Z,100420.06
2022-09-09T09:57:26.596Z,100419.57
2022-09-09T10:00:56.325Z,100417.55
2022-09-09T10:04:26.150Z,100413.16
2022-09-09T10:08:08.067Z,100413.39
2022-09-09T10:12:11.060Z,100413.19
2022-09-09T10:15:47.702Z,100411.42
2022-09-09T10:19:18.997Z,100412.17
2022-09-09T10:22:52.418Z,100408.92
2022-09-09T10:26:36.938Z,100415.30
2022-09-09T10:30:18.576Z,100423.38
2022-09-09T10:33:52.590Z,100425.52
2022-09-09T10:37:33.259Z,100424.77
2022-09-09T10:41:15.661Z,100430.02
2022-09-09T10:44:59.434Z,100435.16
2022-09-09T10:48:42.501Z,100440.67
2022-09-09T10:52:18.039Z,100441.10
2022-09-09T10:55:47.878Z,100439.34
2022-09-09T10:59:22.131Z,100441.08
2022-09-09T11:02:50.877Z,100439.56
2022-09-09T11:06:21.716Z,100445.09
2022-09-09T11:10:01.462Z,100453.16
2022-09-09T11:13:34.833Z,100454.39
2022-09-09T11:17:06.552Z,100460.82
2022-09-09T11:20:33.709Z,100466.80
2022-09-09T11:24:04.149Z,100467.77
2022-09-09T11:27:40.539Z,100471.36
2022-09-09T11:31:24.727Z,100476.34
2022-09-09T11:35:03.852Z,100475.23
2022-09-09T11:38:36.121Z,100473.16
2022-09-09T11:42:19.046Z,100476.84
2022-09-09T11:45:55.136Z,100480.19
2022-09-09T11:49:42.903Z,100483.14
2022-09-09T11:53:25.995Z,100482.67
2022-09-09T11:56:53.290Z,100484.08
2022-09-09T12:04:21.315Z,100484.41
2022-09-09T12:07:56.221Z,100480.39
2022-09-09T12:11:33.904Z,100479.98
2022-09-09T12:15:22.067Z,100473.44
2022-09-09T12:18:53.078Z,100469.77
2022-09-09T12:22:35.615Z,100463.39
2022-09-09T12:26:18.878Z,100459.77
2022-09-09T12:29:56.839Z,100444.60
2022-09-09T12:33:27.443Z,100447.69
2022-09-09T12:37:00.645Z,100446.73
2022-09-09T12:40:33.501Z,100446.08
2022-09-09T12:44:11.996Z,100443.41
2022-09-09T12:47:47.131Z,100442.73
2022-09-09T12:51:26.409Z,100446.36
2022-09-09T12:54:55.094Z,100441.86
2022-09-09T12:58:29.716Z,100444.25
2022-09-09T13:02:01.579Z,100440.09
2022-09-09T13:05:37.638Z,100437.30
2022-09-09T13:09:21.163Z,100430.46
2022-09-09T13:12:51.298Z,100423.19
2022-09-09T13:16:33.423Z,100431.08
2022-09-09T13:20:19.202Z,100426.57
2022-09-09T13:23:53.984Z,100425.34
2022-09-09T13:27:34.978Z,100425.13
2022-09-09T13:31:32.964Z,100416.85
2022-09-09T13:35:08.193Z,100409.75
2022-09-09T13:38:39.808Z,100409.47
2022-09-09T13:42:22.845Z,100405.02
2022-09-09T13:45:59.349Z,100401.88
2022-09-09T13:49:34.997Z,100403.52
2022-09-09T13:53:05.413Z,100406.70
2022-09-09T13:56:35.074Z,100411.10
2022-09-09T14:00:05.405Z,100408.25
2022-09-09T14:03:38.887Z,100410.46
2022-09-09T14:07:08.815Z,100411.79
2022-09-09T14:10:43.807Z,100411.34
2022-09-09T14:14:41.138Z,100407.27
2022-09-09T14:18:15.356Z,100412.91
2022-09-09T14:21:54.931Z,100410.17
2022-09-09T14:25:37.175Z,100404.80
2022-09-09T14:29:06.959Z,100407.95
2022-09-09T14:32:48.838Z,100409.60
2022-09-09T14:36:24.415Z,100410.94
2022-09-09T14:39:57.634Z,100405.25
2022-09-09T14:43:31.573Z,100402.85
2022-09-09T14:47:00.372Z,100413.34
2022-09-09T14:50:28.227Z,100408.90
2022-09-09T14:54:03.236Z,100409.88
2022-09-09T14:57:33.941Z,100406.12
2022-09-09T15:01:24.898Z,100405.52
2022-09-09T15:08:27.268Z,100406.44
2022-09-09T15:11:54.680Z,100402.76
2022-09-09T15:15:22.324Z,100399.68
2022-09-09T15:18:56.861Z,100399.85
2022-09-09T15:22:35.345Z,100401.11
2022-09-09T15:26:02.410Z,100399.04
2022-09-09T15:29:32.457Z,100398.55
2022-09-09T15:32:59.874Z,100396.22
2022-09-09T15:36:34.554Z,100400.02
2022-09-09T15:40:02.811Z,100398.26
2022-09-09T15:43:32.776Z,100399.99
2022-09-09T15:47:08.578Z,100403.71
2022-09-09T15:50:41.980Z,100397.05
2022-09-09T15:54:14.618Z,100394.77
2022-09-09T15:57:42.222Z,100395.23
2022-09-09T16:01:13.891Z,100400.39
2022-09-09T16:04:43.961Z,100400.58
2022-09-09T16:08:12.557Z,100404.98
2022-09-09T16:11:42.361Z,100409.30
2022-09-09T16:15:13.960Z,100410.06
2022-09-09T16:18:42.693Z,100415.27
2022-09-09T16:22:09.747Z,100405.91
2022-09-09T16:25:39.149Z,100403.52
2022-09-09T16:29:10.343Z,100403.27
2022-09-09T16:32:38.111Z,100406.65
2022-09-09T16:36:12.222Z,100406.00
2022-09-09T16:39:43.517Z,100406.60
2022-09-09T16:43:17.410Z,100409.09
2022-09-09T16:46:47.363Z,100410.44
2022-09-09T16:50:16.183Z,100411.13
2022-09-09T16:53:45.752Z,100406.86
2022-09-09T16:57:13.677Z,100410.33
2022-09-09T17:00:41.534Z,100415.41
2022-09-09T17:04:11.958Z,100422.25
2022-09-09T17:07:41.553Z,100427.22
2022-09-09T17:11:14.808Z,100434.80
2022-09-09T17:14:44.252Z,100439.63
2022-09-09T17:18:13.214Z,100441.61
2022-09-09T17:21:59.936Z,100450.29
2022-09-09T17:25:29.814Z,100441.70
2022-09-09T17:29:00.618Z,100438.72
2022-09-09T17:32:27.616Z,100434.95
2022-09-09T17:35:56.105Z,100436.39
2022-09-09T17:39:28.852Z,100440.79
2022-09-09T17:42:56.374Z,100435.23
2022-09-09T17:46:26.569Z,100438.05
2022-09-09T17:49:56.797Z,100434.77
2022-09-09T17:53:26.866Z,100446.04
2022-09-09T17:56:58.816Z,100455.56
2022-09-09T18:00:26.762Z,100456.20
2022-09-09T18:03:58.372Z,100468.99
2022-09-09T18:07:26.525Z,100473.67
2022-09-09T18:10:59.044Z,100474.09
2022-09-09T18:14:29.140Z,100476.33
2022-09-09T18:17:56.151Z,100472.98
2022-09-09T18:21:26.174Z,100475.25
2022-09-09T18:24:53.433Z,100477.08
2022-09-09T18:28:24.505Z,100478.88
2022-09-09T18:31:53.461Z,100474.17
2022-09-09T18:35:20.603Z,100475.83
2022-09-09T18:38:51.644Z,100482.05
2022-09-09T18:42:20.034Z,100483.57
2022-09-09T18:45:51.085Z,100482.17
2022-09-09T18:49:20.081Z,100474.05
2022-09-09T18:52:47.777Z,100478.22
2022-09-09T18:56:19.169Z,100482.98
2022-09-09T18:59:50.583Z,100477.52
2022-09-09T19:03:17.828Z,100480.44
2022-09-09T19:06:48.179Z,100481.39
2022-09-09T19:10:20.802Z,100479.73
2022-09-09T19:14:03.720Z,100477.45
2022-09-09T19:17:35.597Z,100476.33
2022-09-09T19:21:19.819Z,100467.81
2022-09-09T19:24:52.985Z,100467.18
2022-09-09T19:28:23.240Z,100479.94
2022-09-09T19:32:36.417Z,100476.13
2022-09-09T19:35:58.046Z,100475.95
2022-09-09T19:39:27.606Z,100473.01
2022-09-09T19:42:54.259Z,100475.81
2022-09-09T19:46:28.120Z,100483.34
2022-09-09T19:49:58.236Z,100485.66
2022-09-09T19:53:28.745Z,100491.94
2022-09-09T19:57:03.929Z,100491.05
2022-09-09T20:00:32.131Z,100494.14
2022-09-09T20:04:06.707Z,100498.56
2022-09-09T20:07:36.101Z,100499.58
2022-09-09T20:11:05.587Z,100503.23
2022-09-09T20:14:39.368Z,100504.42
2022-09-09T20:18:08.457Z,100510.52
2022-09-09T20:21:51.365Z,100511.50
2022-09-09T20:25:26.593Z,100511.23
2022-09-09T20:29:00.788Z,100509.95
2022-09-09T20:32:32.387Z,100511.06
2022-09-09T20:36:00.551Z,100509.42
2022-09-09T20:39:34.190Z,100509.88
2022-09-09T20:43:04.423Z,100509.55
2022-09-09T20:46:36.420Z,100510.65
2022-09-09T20:50:19.799Z,100516.14
2022-09-09T20:53:51.341Z,100513.71
2022-09-09T20:57:23.938Z,100522.63
2022-09-09T21:01:12.507Z,100516.30
2022-09-09T21:04:54.133Z,100516.61
2022-09-09T21:08:24.062Z,100510.19
2022-09-09T21:11:59.027Z,100511.54
2022-09-09T21:15:32.462Z,100516.08
2022-09-09T21:19:01.792Z,100512.22
2022-09-09T21:22:33.845Z,100503.42
2022-09-09T21:26:10.636Z,100510.52
2022-09-09T21:29:41.273Z,100510.31
2022-09-09T21:33:18.085Z,100506.05
2022-09-09T21:36:48.043Z,100503.96
2022-09-09T21:40:17.549Z,100503.86
2022-09-09T21:43:48.510Z,100504.73
2022-09-09T21:47:24.968Z,100501.02
2022-09-09T21:54:41.561Z,100486.98
2022-09-09T21:58:10.094Z,100489.09
2022-09-09T22:02:07.379Z,100487.70
2022-09-09T22:05:43.367Z,100480.08
2022-09-09T22:09:10.716Z,100479.20
2022-09-09T22:12:37.658Z,100474.52
2022-09-09T22:16:09.206Z,100472.50
2022-09-09T22:19:58.430Z,100474.36
2022-09-09T22:23:55.834Z,100473.64
2022-09-09T22:27:22.585Z,100476.65
2022-09-09T22:30:49.151Z,100477.85
2022-09-09T22:34:18.358Z,100476.42
2022-09-09T22:37:45.165Z,100473.41
2022-09-09T22:41:15.272Z,100467.81
2022-09-09T22:44:43.445Z,100469.24
2022-09-09T22:48:12.083Z,100468.73
2022-09-09T22:51:39.221Z,100463.02
2022-09-09T22:55:11.473Z,100461.54
2022-09-09T22:58:40.087Z,100459.61
2022-09-09T23:02:14.119Z,100463.22
2022-09-09T23:05:41.553Z,100464.39
2022-09-09T23:09:09.316Z,100461.55
2022-09-09T23:12:37.026Z,100457.62
2022-09-09T23:16:12.187Z,100455.25
2022-09-09T23:19:40.514Z,100452.30
2022-09-09T23:23:07.445Z,100447.40
2022-09-09T23:26:35.515Z,100449.02
2022-09-09T23:30:02.131Z,100448.34
2022-09-09T23:33:32.505Z,100450.63
2022-09-09T23:37:01.456Z,100447.90
2022-09-09T23:40:28.357Z,100447.92
2022-09-09T23:43:56.383Z,100445.00
2022-09-09T23:47:25.663Z,100448.98
2022-09-09T23:50:52.878Z,100445.07
2022-09-09T23:54:19.795Z,100448.74
2022-09-09T23:57:47.229Z,100450.69
